sensor_id;sensor_type;location;lat;lon;timestamp;P1;durP1;ratioP1;P2;durP2;ratioP2
23678;SDS011;12016;51.668;6.874;2022-12-07T00:04:03;16.17;;;14.23;;
23678;SDS011;12016;51.668;6.874;2022-12-07T00:10:06;16.33;;;14.60;;
23678;SDS011;12016;51.668;6.874;2022-12-07T00:16:15;16.17;;;14.15;;
23678;SDS011;12016;51.668;6.874;2022-12-07T00:22:18;18.17;;;15.02;;
23678;SDS011;12016;51.668;6.874;2022-12-07T00:28:20;16.38;;;14.65;;
23678;SDS011;12016;51.668;6.874;2022-12-07T00:34:22;18.77;;;16.65;;
23678;SDS011;12016;51.668;6.874;2022-12-07T00:40:24;18.77;;;16.77;;
23678;SDS011;12016;51.668;6.874;2022-12-07T00:46:25;19.30;;;17.23;;
23678;SDS011;12016;51.668;6.874;2022-12-07T00:52:27;20.83;;;17.85;;
23678;SDS011;12016;51.668;6.874;2022-12-07T00:58:29;19.65;;;17.65;;
23678;SDS011;12016;51.668;6.874;2022-12-07T01:04:32;21.38;;;18.65;;
23678;SDS011;12016;51.668;6.874;2022-12-07T01:10:35;19.27;;;17.27;;
23678;SDS011;12016;51.668;6.874;2022-12-07T01:16:38;20.40;;;18.33;;
23678;SDS011;12016;51.668;6.874;2022-12-07T01:22:40;22.90;;;20.38;;
23678;SDS011;12016;51.668;6.874;2022-12-07T01:28:43;21.23;;;18.55;;
23678;SDS011;12016;51.668;6.874;2022-12-07T01:34:44;20.92;;;18.63;;
23678;SDS011;12016;51.668;6.874;2022-12-07T01:40:53;23.42;;;18.92;;
23678;SDS011;12016;51.668;6.874;2022-12-07T01:46:57;20.17;;;17.85;;
23678;SDS011;12016;51.668;6.874;2022-12-07T01:53:01;21.77;;;19.27;;
23678;SDS011;12016;51.668;6.874;2022-12-07T01:59:05;21.92;;;19.10;;
23678;SDS011;12016;51.668;6.874;2022-12-07T02:05:07;22.52;;;18.98;;
23678;SDS011;12016;51.668;6.874;2022-12-07T02:11:09;24.17;;;19.60;;
23678;SDS011;12016;51.668;6.874;2022-12-07T02:30:06;20.50;;;18.08;;
23678;SDS011;12016;51.668;6.874;2022-12-07T02:36:12;20.77;;;18.40;;
23678;SDS011;12016;51.668;6.874;2022-12-07T02:42:23;21.10;;;18.43;;
23678;SDS011;12016;51.668;6.874;2022-12-07T02:48:31;25.03;;;18.83;;
23678;SDS011;12016;51.668;6.874;2022-12-07T02:54:37;22.48;;;19.83;;
23678;SDS011;12016;51.668;6.874;2022-12-07T03:00:43;24.67;;;19.55;;
23678;SDS011;12016;51.668;6.874;2022-12-07T03:06:57;22.10;;;18.95;;
23678;SDS011;12016;51.668;6.874;2022-12-07T03:13:19;20.88;;;18.55;;
23678;SDS011;12016;51.668;6.874;2022-12-07T03:19:28;27.15;;;20.73;;
23678;SDS011;12016;51.668;6.874;2022-12-07T03:25:34;23.33;;;18.63;;
23678;SDS011;12016;51.668;6.874;2022-12-07T03:31:45;23.20;;;18.80;;
23678;SDS011;12016;51.668;6.874;2022-12-07T03:37:54;22.85;;;18.92;;
23678;SDS011;12016;51.668;6.874;2022-12-07T03:44:00;21.35;;;17.98;;
23678;SDS011;12016;51.668;6.874;2022-12-07T03:50:06;22.27;;;18.42;;
23678;SDS011;12016;51.668;6.874;2022-12-07T03:56:18;20.52;;;18.33;;
23678;SDS011;12016;51.668;6.874;2022-12-07T04:02:22;22.65;;;18.17;;
23678;SDS011;12016;51.668;6.874;2022-12-07T04:08:26;20.58;;;17.95;;
23678;SDS011;12016;51.668;6.874;2022-12-07T04:14:28;21.13;;;17.52;;
23678;SDS011;12016;51.668;6.874;2022-12-07T04:20:30;18.15;;;16.27;;
23678;SDS011;12016;51.668;6.874;2022-12-07T04:26:31;18.77;;;16.67;;
23678;SDS011;12016;51.668;6.874;2022-12-07T04:32:33;20.23;;;17.38;;
23678;SDS011;12016;51.668;6.874;2022-12-07T04:38:35;20.00;;;16.33;;
23678;SDS011;12016;51.668;6.874;2022-12-07T04:44:37;25.38;;;18.65;;
23678;SDS011;12016;51.668;6.874;2022-12-07T04:50:38;21.75;;;17.77;;
23678;SDS011;12016;51.668;6.874;2022-12-07T04:56:45;20.25;;;17.70;;
23678;SDS011;12016;51.668;6.874;2022-12-07T05:02:47;22.48;;;17.75;;
23678;SDS011;12016;51.668;6.874;2022-12-07T05:08:49;22.33;;;18.00;;
23678;SDS011;12016;51.668;6.874;2022-12-07T05:14:51;19.35;;;16.48;;
23678;SDS011;12016;51.668;6.874;2022-12-07T05:20:53;20.13;;;16.23;;
23678;SDS011;12016;51.668;6.874;2022-12-07T05:26:56;20.50;;;16.50;;
23678;SDS011;12016;51.668;6.874;2022-12-07T05:32:58;21.13;;;16.45;;
23678;SDS011;12016;51.668;6.874;2022-12-07T05:39:00;22.98;;;16.20;;
23678;SDS011;12016;51.668;6.874;2022-12-07T05:45:02;21.00;;;15.43;;
23678;SDS011;12016;51.668;6.874;2022-12-07T05:51:04;19.40;;;15.90;;
23678;SDS011;12016;51.668;6.874;2022-12-07T05:57:06;18.25;;;15.40;;
23678;SDS011;12016;51.668;6.874;2022-12-07T06:03:08;19.95;;;16.75;;
23678;SDS011;12016;51.668;6.874;2022-12-07T06:09:10;19.45;;;15.80;;
23678;SDS011;12016;51.668;6.874;2022-12-07T06:15:12;18.02;;;15.60;;
23678;SDS011;12016;51.668;6.874;2022-12-07T06:21:14;20.48;;;15.18;;
23678;SDS011;12016;51.668;6.874;2022-12-07T06:27:16;19.15;;;15.35;;
23678;SDS011;12016;51.668;6.874;2022-12-07T06:33:19;18.08;;;15.38;;
23678;SDS011;12016;51.668;6.874;2022-12-07T06:39:21;17.05;;;14.73;;
23678;SDS011;12016;51.668;6.874;2022-12-07T06:45:26;18.27;;;13.82;;
23678;SDS011;12016;51.668;6.874;2022-12-07T06:51:28;18.77;;;13.85;;
23678;SDS011;12016;51.668;6.874;2022-12-07T06:57:30;19.38;;;14.38;;
23678;SDS011;12016;51.668;6.874;2022-12-07T07:03:32;18.27;;;13.57;;
23678;SDS011;12016;51.668;6.874;2022-12-07T07:09:33;19.40;;;13.88;;
23678;SDS011;12016;51.668;6.874;2022-12-07T07:15:37;14.70;;;13.13;;
23678;SDS011;12016;51.668;6.874;2022-12-07T07:21:40;18.77;;;14.75;;
23678;SDS011;12016;51.668;6.874;2022-12-07T07:27:43;20.02;;;16.60;;
23678;SDS011;12016;51.668;6.874;2022-12-07T07:33:45;20.17;;;14.90;;
23678;SDS011;12016;51.668;6.874;2022-12-07T07:39:48;19.30;;;14.32;;
23678;SDS011;12016;51.668;6.874;2022-12-07T07:45:50;17.92;;;14.70;;
23678;SDS011;12016;51.668;6.874;2022-12-07T07:51:52;16.75;;;14.07;;
23678;SDS011;12016;51.668;6.874;2022-12-07T07:57:54;17.10;;;14.85;;
23678;SDS011;12016;51.668;6.874;2022-12-07T08:03:56;17.85;;;14.88;;
23678;SDS011;12016;51.668;6.874;2022-12-07T08:09:58;15.45;;;12.90;;
23678;SDS011;12016;51.668;6.874;2022-12-07T08:16:07;18.90;;;13.73;;
23678;SDS011;12016;51.668;6.874;2022-12-07T08:22:11;19.17;;;14.10;;
23678;SDS011;12016;51.668;6.874;2022-12-07T08:28:13;16.50;;;12.60;;
23678;SDS011;12016;51.668;6.874;2022-12-07T08:34:15;15.55;;;12.70;;
23678;SDS011;12016;51.668;6.874;2022-12-07T08:40:17;15.32;;;12.02;;
23678;SDS011;12016;51.668;6.874;2022-12-07T08:52:40;12.65;;;10.52;;
23678;SDS011;12016;51.668;6.874;2022-12-07T08:58:44;14.93;;;10.45;;
23678;SDS011;12016;51.668;6.874;2022-12-07T09:04:46;11.73;;;9.18;;
23678;SDS011;12016;51.668;6.874;2022-12-07T09:10:49;14.27;;;9.10;;
23678;SDS011;12016;51.668;6.874;2022-12-07T09:16:51;11.45;;;9.13;;
23678;SDS011;12016;51.668;6.874;2022-12-07T09:22:54;11.05;;;8.68;;
23678;SDS011;12016;51.668;6.874;2022-12-07T09:28:56;13.23;;;8.63;;
23678;SDS011;12016;51.668;6.874;2022-12-07T09:34:58;13.02;;;9.07;;
23678;SDS011;12016;51.668;6.874;2022-12-07T09:41:05;11.57;;;8.27;;
23678;SDS011;12016;51.668;6.874;2022-12-07T09:47:08;11.63;;;7.93;;
23678;SDS011;12016;51.668;6.874;2022-12-07T09:53:28;9.38;;;6.40;;
23678;SDS011;12016;51.668;6.874;2022-12-07T09:59:35;7.88;;;4.90;;
23678;SDS011;12016;51.668;6.874;2022-12-07T10:05:42;10.23;;;4.95;;
23678;SDS011;12016;51.668;6.874;2022-12-07T10:12:00;7.32;;;5.20;;
23678;SDS011;12016;51.668;6.874;2022-12-07T10:18:18;9.18;;;5.35;;
23678;SDS011;12016;51.668;6.874;2022-12-07T10:24:21;7.90;;;5.10;;
23678;SDS011;12016;51.668;6.874;2022-12-07T10:30:23;7.90;;;4.82;;
23678;SDS011;12016;51.668;6.874;2022-12-07T10:36:27;10.40;;;5.10;;
23678;SDS011;12016;51.668;6.874;2022-12-07T10:42:29;8.65;;;5.15;;
23678;SDS011;12016;51.668;6.874;2022-12-07T10:55:16;8.15;;;4.50;;
23678;SDS011;12016;51.668;6.874;2022-12-07T11:14:28;7.55;;;4.43;;
23678;SDS011;12016;51.668;6.874;2022-12-07T11:20:44;6.07;;;3.97;;
23678;SDS011;12016;51.668;6.874;2022-12-07T11:33:19;6.65;;;3.42;;
23678;SDS011;12016;51.668;6.874;2022-12-07T11:45:25;5.50;;;2.80;;
23678;SDS011;12016;51.668;6.874;2022-12-07T11:51:31;4.55;;;3.05;;
23678;SDS011;12016;51.668;6.874;2022-12-07T11:57:37;5.57;;;2.85;;
23678;SDS011;12016;51.668;6.874;2022-12-07T12:03:47;4.88;;;3.03;;
23678;SDS011;12016;51.668;6.874;2022-12-07T12:10:01;7.22;;;3.17;;
23678;SDS011;12016;51.668;6.874;2022-12-07T12:22:33;6.80;;;2.90;;
23678;SDS011;12016;51.668;6.874;2022-12-07T12:28:49;3.60;;;2.50;;
23678;SDS011;12016;51.668;6.874;2022-12-07T12:35:01;5.65;;;2.90;;
23678;SDS011;12016;51.668;6.874;2022-12-07T12:41:06;5.70;;;2.77;;
23678;SDS011;12016;51.668;6.874;2022-12-07T12:53:42;6.15;;;2.88;;
23678;SDS011;12016;51.668;6.874;2022-12-07T13:05:49;6.38;;;2.90;;
23678;SDS011;12016;51.668;6.874;2022-12-07T13:12:21;5.43;;;2.63;;
23678;SDS011;12016;51.668;6.874;2022-12-07T13:24:31;5.97;;;2.75;;
23678;SDS011;12016;51.668;6.874;2022-12-07T13:30:33;5.13;;;2.70;;
23678;SDS011;12016;51.668;6.874;2022-12-07T13:36:50;3.83;;;2.25;;
23678;SDS011;12016;51.668;6.874;2022-12-07T13:42:59;4.93;;;2.50;;
23678;SDS011;12016;51.668;6.874;2022-12-07T13:49:02;4.53;;;2.53;;
23678;SDS011;12016;51.668;6.874;2022-12-07T14:01:06;6.18;;;2.78;;
23678;SDS011;12016;51.668;6.874;2022-12-07T14:13:58;5.45;;;2.70;;
23678;SDS011;12016;51.668;6.874;2022-12-07T14:20:02;5.85;;;3.08;;
23678;SDS011;12016;51.668;6.874;2022-12-07T14:38:25;5.90;;;3.30;;
23678;SDS011;12016;51.668;6.874;2022-12-07T14:44:29;6.00;;;3.15;;
23678;SDS011;12016;51.668;6.874;2022-12-07T14:50:35;6.47;;;3.45;;
23678;SDS011;12016;51.668;6.874;2022-12-07T14:57:01;4.97;;;2.90;;
23678;SDS011;12016;51.668;6.874;2022-12-07T15:03:03;9.57;;;3.63;;
23678;SDS011;12016;51.668;6.874;2022-12-07T15:09:05;4.85;;;2.83;;
23678;SDS011;12016;51.668;6.874;2022-12-07T15:15:07;6.47;;;3.13;;
23678;SDS011;12016;51.668;6.874;2022-12-07T15:21:13;7.60;;;3.38;;
23678;SDS011;12016;51.668;6.874;2022-12-07T15:27:16;6.32;;;3.00;;
23678;SDS011;12016;51.668;6.874;2022-12-07T15:33:17;5.15;;;3.30;;
23678;SDS011;12016;51.668;6.874;2022-12-07T15:39:19;7.07;;;4.00;;
23678;SDS011;12016;51.668;6.874;2022-12-07T15:45:23;9.27;;;4.10;;
23678;SDS011;12016;51.668;6.874;2022-12-07T15:51:24;9.38;;;4.10;;
23678;SDS011;12016;51.668;6.874;2022-12-07T15:57:27;5.13;;;3.90;;
23678;SDS011;12016;51.668;6.874;2022-12-07T16:03:28;7.97;;;4.15;;
23678;SDS011;12016;51.668;6.874;2022-12-07T16:09:30;10.23;;;4.20;;
23678;SDS011;12016;51.668;6.874;2022-12-07T16:15:32;8.40;;;5.45;;
23678;SDS011;12016;51.668;6.874;2022-12-07T16:21:34;7.55;;;4.20;;
23678;SDS011;12016;51.668;6.874;2022-12-07T16:27:38;5.45;;;4.07;;
23678;SDS011;12016;51.668;6.874;2022-12-07T16:33:41;6.97;;;4.53;;
23678;SDS011;12016;51.668;6.874;2022-12-07T16:39:44;5.80;;;4.53;;
23678;SDS011;12016;51.668;6.874;2022-12-07T16:45:46;8.15;;;4.90;;
23678;SDS011;12016;51.668;6.874;2022-12-07T16:51:49;7.75;;;5.13;;
23678;SDS011;12016;51.668;6.874;2022-12-07T16:57:59;7.50;;;4.95;;
23678;SDS011;12016;51.668;6.874;2022-12-07T17:04:01;7.55;;;5.20;;
23678;SDS011;12016;51.668;6.874;2022-12-07T17:10:04;8.43;;;5.32;;
23678;SDS011;12016;51.668;6.874;2022-12-07T17:16:06;6.10;;;5.10;;
23678;SDS011;12016;51.668;6.874;2022-12-07T17:22:08;8.02;;;5.88;;
23678;SDS011;12016;51.668;6.874;2022-12-07T17:28:12;8.00;;;5.75;;
23678;SDS011;12016;51.668;6.874;2022-12-07T17:34:14;12.02;;;7.80;;
23678;SDS011;12016;51.668;6.874;2022-12-07T17:40:17;8.30;;;5.55;;
23678;SDS011;12016;51.668;6.874;2022-12-07T17:46:18;9.73;;;6.03;;
23678;SDS011;12016;51.668;6.874;2022-12-07T17:52:21;9.10;;;6.40;;
23678;SDS011;12016;51.668;6.874;2022-12-07T17:58:41;7.93;;;5.97;;
23678;SDS011;12016;51.668;6.874;2022-12-07T18:04:43;7.50;;;5.65;;
23678;SDS011;12016;51.668;6.874;2022-12-07T18:10:46;7.28;;;4.82;;
23678;SDS011;12016;51.668;6.874;2022-12-07T18:16:48;6.00;;;4.70;;
23678;SDS011;12016;51.668;6.874;2022-12-07T18:22:50;5.32;;;4.43;;
23678;SDS011;12016;51.668;6.874;2022-12-07T18:28:51;6.43;;;4.57;;
23678;SDS011;12016;51.668;6.874;2022-12-07T18:34:53;7.68;;;5.78;;
23678;SDS011;12016;51.668;6.874;2022-12-07T18:40:55;6.47;;;5.60;;
23678;SDS011;12016;51.668;6.874;2022-12-07T18:46:57;6.07;;;4.95;;
23678;SDS011;12016;51.668;6.874;2022-12-07T18:53:00;6.18;;;5.28;;
23678;SDS011;12016;51.668;6.874;2022-12-07T18:59:03;6.82;;;6.13;;
23678;SDS011;12016;51.668;6.874;2022-12-07T19:05:24;6.95;;;6.13;;
23678;SDS011;12016;51.668;6.874;2022-12-07T19:11:27;8.77;;;7.05;;
23678;SDS011;12016;51.668;6.874;2022-12-07T19:17:50;7.95;;;6.85;;
23678;SDS011;12016;51.668;6.874;2022-12-07T19:23:52;7.68;;;6.35;;
23678;SDS011;12016;51.668;6.874;2022-12-07T19:29:53;7.55;;;6.75;;
23678;SDS011;12016;51.668;6.874;2022-12-07T19:35:55;7.90;;;7.10;;
23678;SDS011;12016;51.668;6.874;2022-12-07T19:41:57;9.00;;;7.63;;
23678;SDS011;12016;51.668;6.874;2022-12-07T19:47:59;8.65;;;7.70;;
23678;SDS011;12016;51.668;6.874;2022-12-07T19:54:01;10.18;;;8.40;;
23678;SDS011;12016;51.668;6.874;2022-12-07T20:00:03;9.52;;;8.50;;
23678;SDS011;12016;51.668;6.874;2022-12-07T20:06:08;10.48;;;9.35;;
23678;SDS011;12016;51.668;6.874;2022-12-07T20:12:11;11.73;;;10.00;;
23678;SDS011;12016;51.668;6.874;2022-12-07T20:26:32;14.40;;;12.25;;
23678;SDS011;12016;51.668;6.874;2022-12-07T20:32:35;14.07;;;11.68;;
23678;SDS011;12016;51.668;6.874;2022-12-07T20:38:49;13.73;;;11.82;;
23678;SDS011;12016;51.668;6.874;2022-12-07T20:45:11;13.60;;;11.80;;
23678;SDS011;12016;51.668;6.874;2022-12-07T21:05:46;15.85;;;13.20;;
23678;SDS011;12016;51.668;6.874;2022-12-07T21:11:51;14.43;;;11.95;;
23678;SDS011;12016;51.668;6.874;2022-12-07T21:17:54;14.60;;;12.25;;
23678;SDS011;12016;51.668;6.874;2022-12-07T21:23:56;13.93;;;11.77;;
23678;SDS011;12016;51.668;6.874;2022-12-07T21:30:02;14.75;;;13.00;;
23678;SDS011;12016;51.668;6.874;2022-12-07T21:36:05;14.20;;;11.93;;
23678;SDS011;12016;51.668;6.874;2022-12-07T21:42:10;14.50;;;12.95;;
23678;SDS011;12016;51.668;6.874;2022-12-07T21:48:11;16.15;;;13.30;;
23678;SDS011;12016;51.668;6.874;2022-12-07T21:54:13;14.68;;;12.82;;
23678;SDS011;12016;51.668;6.874;2022-12-07T22:00:15;14.98;;;13.23;;
23678;SDS011;12016;51.668;6.874;2022-12-07T22:06:18;13.05;;;11.68;;
23678;SDS011;12016;51.668;6.874;2022-12-07T22:12:22;14.93;;;11.63;;
23678;SDS011;12016;51.668;6.874;2022-12-07T22:18:24;12.68;;;10.52;;
23678;SDS011;12016;51.668;6.874;2022-12-07T22:24:25;11.52;;;10.32;;
23678;SDS011;12016;51.668;6.874;2022-12-07T22:30:27;10.18;;;9.07;;
23678;SDS011;12016;51.668;6.874;2022-12-07T22:36:29;10.75;;;8.48;;
23678;SDS011;12016;51.668;6.874;2022-12-07T22:42:30;9.85;;;8.85;;
23678;SDS011;12016;51.668;6.874;2022-12-07T22:48:32;9.20;;;7.88;;
23678;SDS011;12016;51.668;6.874;2022-12-07T22:54:34;8.93;;;7.10;;
23678;SDS011;12016;51.668;6.874;2022-12-07T23:00:36;7.88;;;6.80;;
23678;SDS011;12016;51.668;6.874;2022-12-07T23:06:39;9.73;;;6.93;;
23678;SDS011;12016;51.668;6.874;2022-12-07T23:12:41;9.00;;;7.18;;
23678;SDS011;12016;51.668;6.874;2022-12-07T23:19:01;9.27;;;7.80;;
23678;SDS011;12016;51.668;6.874;2022-12-07T23:25:03;9.85;;;7.97;;
23678;SDS011;12016;51.668;6.874;2022-12-07T23:37:09;11.07;;;8.70;;
23678;SDS011;12016;51.668;6.874;2022-12-07T23:43:10;11.85;;;10.48;;
23678;SDS011;12016;51.668;6.874;2022-12-07T23:49:12;12.25;;;10.98;;
23678;SDS011;12016;51.668;6.874;2022-12-07T23:55:14;14.43;;;12.60;;
